AEE370 LGAV-LGMK
Flight info
| Callsign | AEE370 |
|---|---|
| Flight time | N/A |
| Altitude | 15000 |
| Route | KEA L995 VARIX |
| Aircraft | AT76/M-SDFGIRY/S |
Departure
| Time | N/A |
|---|---|
| Airport | Athens Eleftherios Venizelos International Airport (LGAV) |
Arrival
| Time | 2026-04-26 19:37 |
|---|---|
| Airport | Mykonos Island National Airport (LGMK) |
| Time | Latitude | Longitude | Altitude | Speed | Heading |
|---|---|---|---|---|---|
| 2026-04-26 19:19 | 37.83903 | 24.40326 | 7095 ft | 254 kts | 109° |
| 2026-04-26 19:19 | 37.82817 | 24.42077 | 7342 ft | 258 kts | 144° |
| 2026-04-26 19:19 | 37.81170 | 24.42915 | 7596 ft | 254 kts | 166° |
| 2026-04-26 19:20 | 37.79444 | 24.43419 | 7846 ft | 254 kts | 169° |
| 2026-04-26 19:20 | 37.78294 | 24.43724 | 8005 ft | 254 kts | 169° |
| 2026-04-26 19:20 | 37.75993 | 24.44309 | 8337 ft | 254 kts | 170° |
| 2026-04-26 19:20 | 37.74256 | 24.44742 | 8591 ft | 254 kts | 170° |
| 2026-04-26 19:21 | 37.72523 | 24.45171 | 8844 ft | 254 kts | 170° |
| 2026-04-26 19:21 | 37.70788 | 24.45600 | 9101 ft | 254 kts | 170° |
| 2026-04-26 19:21 | 37.69045 | 24.46029 | 9360 ft | 255 kts | 170° |
| 2026-04-26 19:21 | 37.67299 | 24.46459 | 9618 ft | 256 kts | 170° |
| 2026-04-26 19:22 | 37.65560 | 24.46887 | 9877 ft | 256 kts | 170° |
| 2026-04-26 19:22 | 37.63803 | 24.47319 | 10121 ft | 256 kts | 170° |
| 2026-04-26 19:22 | 37.62054 | 24.47747 | 10366 ft | 256 kts | 170° |
| 2026-04-26 19:22 | 37.60319 | 24.48168 | 10589 ft | 257 kts | 170° |
| 2026-04-26 19:23 | 37.58562 | 24.48591 | 10805 ft | 260 kts | 170° |
| 2026-04-26 19:23 | 37.56757 | 24.49021 | 10896 ft | 267 kts | 170° |
| 2026-04-26 19:23 | 37.54970 | 24.49620 | 10946 ft | 270 kts | 152° |
| 2026-04-26 19:23 | 37.53581 | 24.51216 | 10975 ft | 273 kts | 126° |
| 2026-04-26 19:24 | 37.52487 | 24.53203 | 10980 ft | 279 kts | 122° |
| 2026-04-26 19:24 | 37.51417 | 24.55277 | 10984 ft | 284 kts | 121° |
| 2026-04-26 19:24 | 37.49261 | 24.59533 | 10991 ft | 291 kts | 121° |
| 2026-04-26 19:25 | 37.48181 | 24.61671 | 10992 ft | 293 kts | 121° |
| 2026-04-26 19:25 | 37.47454 | 24.63111 | 10993 ft | 294 kts | 121° |
| 2026-04-26 19:25 | 37.45981 | 24.66027 | 10997 ft | 296 kts | 121° |
| 2026-04-26 19:25 | 37.44871 | 24.68222 | 10998 ft | 297 kts | 121° |
| 2026-04-26 19:26 | 37.43760 | 24.70420 | 10999 ft | 298 kts | 121° |
| 2026-04-26 19:26 | 37.42647 | 24.72624 | 11000 ft | 298 kts | 121° |
| 2026-04-26 19:26 | 37.41530 | 24.74835 | 10930 ft | 301 kts | 121° |
| 2026-04-26 19:26 | 37.40418 | 24.77034 | 10798 ft | 292 kts | 121° |
| 2026-04-26 19:27 | 37.39347 | 24.79167 | 10659 ft | 285 kts | 119° |
| 2026-04-26 19:27 | 37.38731 | 24.81479 | 10465 ft | 276 kts | 94° |
| 2026-04-26 19:27 | 37.38621 | 24.83870 | 10300 ft | 273 kts | 89° |
| 2026-04-26 19:27 | 37.38588 | 24.86251 | 10145 ft | 280 kts | 88° |
| 2026-04-26 19:28 | 37.38582 | 24.88708 | 10006 ft | 280 kts | 88° |
| 2026-04-26 19:28 | 37.38584 | 24.91236 | 9922 ft | 296 kts | 88° |
| 2026-04-26 19:28 | 37.38591 | 24.93805 | 9868 ft | 287 kts | 88° |
| 2026-04-26 19:28 | 37.38599 | 24.96281 | 9663 ft | 280 kts | 88° |
| 2026-04-26 19:29 | 37.38606 | 24.98715 | 9402 ft | 277 kts | 88° |
| 2026-04-26 19:29 | 37.38560 | 25.01119 | 9144 ft | 273 kts | 93° |
| 2026-04-26 19:29 | 37.38347 | 25.03464 | 8894 ft | 272 kts | 96° |
| 2026-04-26 19:29 | 37.38086 | 25.05818 | 8636 ft | 271 kts | 96° |
| 2026-04-26 19:30 | 37.37810 | 25.08159 | 8379 ft | 270 kts | 97° |
| 2026-04-26 19:30 | 37.37530 | 25.10488 | 8125 ft | 269 kts | 97° |
| 2026-04-26 19:30 | 37.37248 | 25.12809 | 7879 ft | 268 kts | 97° |
| 2026-04-26 19:30 | 37.37062 | 25.14346 | 7711 ft | 268 kts | 97° |
| 2026-04-26 19:31 | 37.36688 | 25.17419 | 7368 ft | 268 kts | 97° |
| 2026-04-26 19:31 | 37.36407 | 25.19725 | 7125 ft | 266 kts | 97° |
| 2026-04-26 19:31 | 37.35759 | 25.21866 | 6882 ft | 265 kts | 126° |
| 2026-04-26 19:31 | 37.34538 | 25.23590 | 6645 ft | 264 kts | 134° |
| 2026-04-26 19:32 | 37.33250 | 25.25242 | 6394 ft | 265 kts | 135° |
| 2026-04-26 19:32 | 37.31948 | 25.26890 | 6151 ft | 266 kts | 135° |
| 2026-04-26 19:32 | 37.30646 | 25.28535 | 5899 ft | 265 kts | 134° |
| 2026-04-26 19:32 | 37.29702 | 25.30468 | 5585 ft | 263 kts | 103° |
| 2026-04-26 19:33 | 37.29589 | 25.32749 | 5214 ft | 262 kts | 88° |
| 2026-04-26 19:33 | 37.29552 | 25.35055 | 4846 ft | 266 kts | 90° |
| 2026-04-26 19:33 | 37.29494 | 25.37395 | 4471 ft | 268 kts | 88° |
| 2026-04-26 19:33 | 37.29721 | 25.39690 | 4022 ft | 262 kts | 66° |
| 2026-04-26 19:34 | 37.30758 | 25.41454 | 3503 ft | 247 kts | 34° |
| 2026-04-26 19:34 | 37.32307 | 25.42154 | 2984 ft | 235 kts | 0° |
| 2026-04-26 19:34 | 37.33825 | 25.41646 | 2489 ft | 226 kts | 332° |
| 2026-04-26 19:34 | 37.35146 | 25.40669 | 2210 ft | 213 kts | 328° |
| 2026-04-26 19:35 | 37.36078 | 25.39375 | 2092 ft | 196 kts | 294° |
| 2026-04-26 19:35 | 37.36587 | 25.37883 | 2039 ft | 179 kts | 303° |
| 2026-04-26 19:35 | 37.37392 | 25.36728 | 1652 ft | 178 kts | 327° |
| 2026-04-26 19:35 | 37.38533 | 25.36240 | 1431 ft | 165 kts | 350° |
| 2026-04-26 19:36 | 37.39592 | 25.36109 | 1279 ft | 142 kts | 354° |
| 2026-04-26 19:36 | 37.39908 | 25.36081 | 1168 ft | 139 kts | 355° |
| 2026-04-26 19:36 | 37.41392 | 25.35729 | 816 ft | 117 kts | 340° |
| 2026-04-26 19:36 | 37.42153 | 25.35419 | 560 ft | 113 kts | 343° |
| 2026-04-26 19:37 | 37.42856 | 25.35112 | 421 ft | 106 kts | 339° |
| 2026-04-26 19:37 | 37.43512 | 25.34822 | 407 ft | 87 kts | 341° |
| 2026-04-26 19:37 | 37.43723 | 25.34725 | 407 ft | 4 kts | 307° |
| 2026-04-26 19:37 | 37.43713 | 25.34704 | 407 ft | 4 kts | 201° |
| 2026-04-26 19:38 | 37.43687 | 25.34701 | 405 ft | 7 kts | 186° |
| 2026-04-26 19:38 | 37.43615 | 25.34673 | 404 ft | 6 kts | 193° |
| 2026-04-26 19:38 | 37.43565 | 25.34683 | 402 ft | 7 kts | 160° |
| 2026-04-26 19:38 | 37.43536 | 25.34689 | 404 ft | 6 kts | 186° |
| 2026-04-26 19:39 | 37.43512 | 25.34660 | 403 ft | 4 kts | 246° |
| 2026-04-26 19:39 | 37.43505 | 25.34638 | 403 ft | 0 kts | 249° |